sensor_id;sensor_type;location;lat;lon;timestamp;pressure;altitude;pressure_sealevel;temperature;humidity
52343;BME280;38277;51.972;4.624;2023-03-16T00:04:03;101890.0;;;7.5;58.5
52343;BME280;38277;51.972;4.624;2023-03-16T00:08:53;101870.0;;;7.5;58.5
52343;BME280;38277;51.972;4.624;2023-03-16T00:17:34;101860.0;;;7.6;59.0
52343;BME280;38277;51.972;4.624;2023-03-16T00:22:22;101860.0;;;7.5;59.0
52343;BME280;38277;51.972;4.624;2023-03-16T00:26:39;101870.0;;;7.5;59.0
52343;BME280;38277;51.972;4.624;2023-03-16T00:31:26;101860.0;;;7.5;59.5
52343;BME280;38277;51.972;4.624;2023-03-16T00:35:50;101850.0;;;7.5;59.5
52343;BME280;38277;51.972;4.624;2023-03-16T00:40:04;101850.0;;;7.5;60.0
52343;BME280;38277;51.972;4.624;2023-03-16T00:44:54;101840.0;;;7.5;60.0
52343;BME280;38277;51.972;4.624;2023-03-16T00:49:30;101840.0;;;7.5;60.5
52343;BME280;38277;51.972;4.624;2023-03-16T00:53:44;101830.0;;;7.6;60.5
52343;BME280;38277;51.972;4.624;2023-03-16T00:58:21;101820.0;;;7.6;61.0
52343;BME280;38277;51.972;4.624;2023-03-16T01:02:43;101810.0;;;7.6;61.5
52343;BME280;38277;51.972;4.624;2023-03-16T01:08:03;101800.0;;;7.6;61.5
52343;BME280;38277;51.972;4.624;2023-03-16T01:11:55;101810.0;;;7.6;62.0
52343;BME280;38277;51.972;4.624;2023-03-16T01:16:15;101800.0;;;7.5;62.0
52343;BME280;38277;51.972;4.624;2023-03-16T01:20:43;101800.0;;;7.6;62.5
52343;BME280;38277;51.972;4.624;2023-03-16T01:25:58;101790.0;;;7.6;62.5
52343;BME280;38277;51.972;4.624;2023-03-16T01:29:51;101790.0;;;7.6;63.0
52343;BME280;38277;51.972;4.624;2023-03-16T01:34:28;101780.0;;;7.6;63.0
52343;BME280;38277;51.972;4.624;2023-03-16T01:38:39;101780.0;;;7.7;63.0
52343;BME280;38277;51.972;4.624;2023-03-16T01:43:18;101770.0;;;7.7;63.5
52343;BME280;38277;51.972;4.624;2023-03-16T01:52:13;101760.0;;;7.7;63.5
52343;BME280;38277;51.972;4.624;2023-03-16T01:57:09;101760.0;;;7.7;63.5
52343;BME280;38277;51.972;4.624;2023-03-16T02:06:05;101750.0;;;7.7;64.0
52343;BME280;38277;51.972;4.624;2023-03-16T02:10:18;101750.0;;;7.8;64.0
52343;BME280;38277;51.972;4.624;2023-03-16T02:14:37;101740.0;;;7.8;64.5
52343;BME280;38277;51.972;4.624;2023-03-16T02:19:26;101740.0;;;7.8;65.0
52343;BME280;38277;51.972;4.624;2023-03-16T02:28:18;101720.0;;;7.7;66.0
52343;BME280;38277;51.972;4.624;2023-03-16T02:32:35;101710.0;;;7.7;66.5
52343;BME280;38277;51.972;4.624;2023-03-16T02:41:52;101710.0;;;7.7;67.5
52343;BME280;38277;51.972;4.624;2023-03-16T02:46:13;101710.0;;;7.6;68.0
52343;BME280;38277;51.972;4.624;2023-03-16T02:50:54;101710.0;;;7.6;68.0
52343;BME280;38277;51.972;4.624;2023-03-16T02:55:10;101710.0;;;7.6;68.5
52343;BME280;38277;51.972;4.624;2023-03-16T02:59:53;101710.0;;;7.6;68.5
52343;BME280;38277;51.972;4.624;2023-03-16T03:04:53;101700.0;;;7.6;69.0
52343;BME280;38277;51.972;4.624;2023-03-16T03:08:51;101700.0;;;7.6;69.5
52343;BME280;38277;51.972;4.624;2023-03-16T03:13:04;101710.0;;;7.6;70.0
52343;BME280;38277;51.972;4.624;2023-03-16T03:17:53;101700.0;;;7.6;70.0
52343;BME280;38277;51.972;4.624;2023-03-16T03:22:27;101690.0;;;7.6;70.5
52343;BME280;38277;51.972;4.624;2023-03-16T03:27:37;101680.0;;;7.6;71.0
52343;BME280;38277;51.972;4.624;2023-03-16T03:31:51;101680.0;;;7.6;71.5
52343;BME280;38277;51.972;4.624;2023-03-16T03:35:45;101680.0;;;7.6;71.0
52343;BME280;38277;51.972;4.624;2023-03-16T03:40:18;101680.0;;;7.6;71.5
52343;BME280;38277;51.972;4.624;2023-03-16T03:44:44;101680.0;;;7.6;71.5
52343;BME280;38277;51.972;4.624;2023-03-16T03:49:16;101670.0;;;7.6;71.5
52343;BME280;38277;51.972;4.624;2023-03-16T03:53:53;101660.0;;;7.6;71.5
52343;BME280;38277;51.972;4.624;2023-03-16T03:58:22;101650.0;;;7.7;71.5
52343;BME280;38277;51.972;4.624;2023-03-16T04:07:10;101660.0;;;7.7;71.5
52343;BME280;38277;51.972;4.624;2023-03-16T04:11:49;101660.0;;;7.7;72.0
52343;BME280;38277;51.972;4.624;2023-03-16T04:16:19;101660.0;;;7.7;72.0
52343;BME280;38277;51.972;4.624;2023-03-16T04:20:45;101650.0;;;7.7;72.0
52343;BME280;38277;51.972;4.624;2023-03-16T04:25:25;101640.0;;;7.7;72.0
52343;BME280;38277;51.972;4.624;2023-03-16T04:29:40;101640.0;;;7.7;72.5
52343;BME280;38277;51.972;4.624;2023-03-16T04:34:02;101640.0;;;7.7;72.5
52343;BME280;38277;51.972;4.624;2023-03-16T04:43:09;101620.0;;;7.7;73.0
52343;BME280;38277;51.972;4.624;2023-03-16T04:47:45;101620.0;;;7.6;73.5
52343;BME280;38277;51.972;4.624;2023-03-16T04:52:28;101630.0;;;7.6;74.0
52343;BME280;38277;51.972;4.624;2023-03-16T04:56:37;101620.0;;;7.6;74.5
52343;BME280;38277;51.972;4.624;2023-03-16T05:01:19;101620.0;;;7.5;75.0
52343;BME280;38277;51.972;4.624;2023-03-16T05:05:42;101610.0;;;7.5;75.5
52343;BME280;38277;51.972;4.624;2023-03-16T05:10:28;101610.0;;;7.5;76.0
52343;BME280;38277;51.972;4.624;2023-03-16T05:14:34;101610.0;;;7.5;76.5
52343;BME280;38277;51.972;4.624;2023-03-16T05:19:26;101610.0;;;7.5;77.0
52343;BME280;38277;51.972;4.624;2023-03-16T05:23:50;101610.0;;;7.4;77.5
52343;BME280;38277;51.972;4.624;2023-03-16T05:28:08;101600.0;;;7.4;78.0
52343;BME280;38277;51.972;4.624;2023-03-16T05:32:49;101590.0;;;7.4;78.0
52343;BME280;38277;51.972;4.624;2023-03-16T05:41:37;101590.0;;;7.3;79.0
52343;BME280;38277;51.972;4.624;2023-03-16T05:46:16;101590.0;;;7.3;79.0
52343;BME280;38277;51.972;4.624;2023-03-16T05:50:55;101600.0;;;7.2;79.5
52343;BME280;38277;51.972;4.624;2023-03-16T05:55:20;101600.0;;;7.2;79.5
52343;BME280;38277;51.972;4.624;2023-03-16T05:59:37;101590.0;;;7.2;80.0
52343;BME280;38277;51.972;4.624;2023-03-16T06:04:25;101590.0;;;7.2;80.0
52343;BME280;38277;51.972;4.624;2023-03-16T06:17:45;101580.0;;;7.2;80.5
52343;BME280;38277;51.972;4.624;2023-03-16T06:22:03;101570.0;;;7.2;80.5
52343;BME280;38277;51.972;4.624;2023-03-16T06:26:39;101570.0;;;7.1;80.5
52343;BME280;38277;51.972;4.624;2023-03-16T06:31:32;101570.0;;;7.1;80.5
52343;BME280;38277;51.972;4.624;2023-03-16T06:35:38;101560.0;;;7.2;80.5
52343;BME280;38277;51.972;4.624;2023-03-16T06:44:54;101550.0;;;7.2;80.5
52343;BME280;38277;51.972;4.624;2023-03-16T06:53:35;101540.0;;;7.3;80.5
52343;BME280;38277;51.972;4.624;2023-03-16T06:58:31;101540.0;;;7.3;80.5
52343;BME280;38277;51.972;4.624;2023-03-16T07:03:00;101540.0;;;7.3;80.5
52343;BME280;38277;51.972;4.624;2023-03-16T07:07:08;101540.0;;;7.4;80.5
52343;BME280;38277;51.972;4.624;2023-03-16T07:11:40;101530.0;;;7.4;80.0
52343;BME280;38277;51.972;4.624;2023-03-16T07:16:07;101530.0;;;7.5;80.0
52343;BME280;38277;51.972;4.624;2023-03-16T07:20:38;101540.0;;;7.5;79.5
52343;BME280;38277;51.972;4.624;2023-03-16T07:25:15;101540.0;;;7.6;79.0
52343;BME280;38277;51.972;4.624;2023-03-16T07:29:33;101520.0;;;7.8;78.0
52343;BME280;38277;51.972;4.624;2023-03-16T07:34:14;101520.0;;;7.8;77.0
52343;BME280;38277;51.972;4.624;2023-03-16T07:38:41;101530.0;;;7.9;77.0
52343;BME280;38277;51.972;4.624;2023-03-16T07:43:17;101540.0;;;8.0;76.5
52343;BME280;38277;51.972;4.624;2023-03-16T07:47:39;101530.0;;;8.1;76.0
52343;BME280;38277;51.972;4.624;2023-03-16T07:52:07;101530.0;;;8.2;74.5
52343;BME280;38277;51.972;4.624;2023-03-16T07:56:37;101530.0;;;8.3;74.0
52343;BME280;38277;51.972;4.624;2023-03-16T08:01:08;101530.0;;;8.4;73.5
52343;BME280;38277;51.972;4.624;2023-03-16T08:05:53;101530.0;;;8.5;73.0
52343;BME280;38277;51.972;4.624;2023-03-16T08:10:06;101530.0;;;8.6;72.5
52343;BME280;38277;51.972;4.624;2023-03-16T08:14:45;101540.0;;;8.7;72.0
52343;BME280;38277;51.972;4.624;2023-03-16T08:19:10;101530.0;;;8.8;71.0
52343;BME280;38277;51.972;4.624;2023-03-16T08:23:37;101530.0;;;8.8;70.5
52343;BME280;38277;51.972;4.624;2023-03-16T08:28:25;101530.0;;;8.9;70.0
52343;BME280;38277;51.972;4.624;2023-03-16T08:32:57;101530.0;;;8.9;70.0
52343;BME280;38277;51.972;4.624;2023-03-16T08:37:07;101510.0;;;9.0;70.0
52343;BME280;38277;51.972;4.624;2023-03-16T08:41:50;101510.0;;;9.2;69.0
52343;BME280;38277;51.972;4.624;2023-03-16T08:46:11;101520.0;;;9.3;68.5
52343;BME280;38277;51.972;4.624;2023-03-16T08:55:28;101510.0;;;9.9;66.5
52343;BME280;38277;51.972;4.624;2023-03-16T09:00:02;101500.0;;;10.1;64.5
52343;BME280;38277;51.972;4.624;2023-03-16T09:04:14;101500.0;;;10.2;63.5
52343;BME280;38277;51.972;4.624;2023-03-16T09:09:44;101500.0;;;10.3;63.0
52343;BME280;38277;51.972;4.624;2023-03-16T09:13:32;101490.0;;;10.5;61.0
52343;BME280;38277;51.972;4.624;2023-03-16T09:17:49;101480.0;;;10.6;61.0
52343;BME280;38277;51.972;4.624;2023-03-16T09:22:30;101490.0;;;10.7;60.0
52343;BME280;38277;51.972;4.624;2023-03-16T09:26:53;101500.0;;;10.7;60.0
52343;BME280;38277;51.972;4.624;2023-03-16T09:31:04;101500.0;;;10.8;59.5
52343;BME280;38277;51.972;4.624;2023-03-16T09:35:58;101470.0;;;11.0;58.0
52343;BME280;38277;51.972;4.624;2023-03-16T09:40:29;101470.0;;;11.1;57.5
52343;BME280;38277;51.972;4.624;2023-03-16T09:49:08;101460.0;;;11.6;55.5
52343;BME280;38277;51.972;4.624;2023-03-16T09:53:37;101450.0;;;11.8;55.0
52343;BME280;38277;51.972;4.624;2023-03-16T09:59:16;101460.0;;;12.1;53.0
52343;BME280;38277;51.972;4.624;2023-03-16T10:04:21;101470.0;;;12.3;52.5
52343;BME280;38277;51.972;4.624;2023-03-16T10:07:24;101460.0;;;12.6;52.0
52343;BME280;38277;51.972;4.624;2023-03-16T10:11:59;101460.0;;;12.9;50.5
52343;BME280;38277;51.972;4.624;2023-03-16T10:16:36;101450.0;;;13.0;50.5
52343;BME280;38277;51.972;4.624;2023-03-16T10:20:57;101460.0;;;13.2;50.0
52343;BME280;38277;51.972;4.624;2023-03-16T10:25:24;101440.0;;;13.4;48.5
52343;BME280;38277;51.972;4.624;2023-03-16T10:29:55;101440.0;;;13.6;48.5
52343;BME280;38277;51.972;4.624;2023-03-16T10:34:13;101430.0;;;13.7;48.5
52343;BME280;38277;51.972;4.624;2023-03-16T10:38:52;101430.0;;;13.9;47.0
52343;BME280;38277;51.972;4.624;2023-03-16T10:43:16;101420.0;;;14.1;47.0
52343;BME280;38277;51.972;4.624;2023-03-16T10:47:42;101420.0;;;14.2;46.5
52343;BME280;38277;51.972;4.624;2023-03-16T10:52:34;101410.0;;;14.3;45.5
52343;BME280;38277;51.972;4.624;2023-03-16T11:01:30;101400.0;;;14.4;44.0
52343;BME280;38277;51.972;4.624;2023-03-16T11:05:57;101380.0;;;14.5;44.5
52343;BME280;38277;51.972;4.624;2023-03-16T11:10:28;101390.0;;;14.4;44.0
52343;BME280;38277;51.972;4.624;2023-03-16T11:15:12;101380.0;;;14.4;43.5
52343;BME280;38277;51.972;4.624;2023-03-16T11:20:16;101390.0;;;14.3;43.0
52343;BME280;38277;51.972;4.624;2023-03-16T11:28:36;101380.0;;;14.3;44.0
52343;BME280;38277;51.972;4.624;2023-03-16T11:32:52;101360.0;;;14.6;43.0
52343;BME280;38277;51.972;4.624;2023-03-16T11:37:47;101360.0;;;14.9;42.5
52343;BME280;38277;51.972;4.624;2023-03-16T11:41:57;101370.0;;;15.5;42.0
52343;BME280;38277;51.972;4.624;2023-03-16T11:46:39;101360.0;;;16.1;41.0
52343;BME280;38277;51.972;4.624;2023-03-16T11:52:23;101360.0;;;16.6;39.5
52343;BME280;38277;51.972;4.624;2023-03-16T11:56:13;101340.0;;;18.2;36.5
52343;BME280;38277;51.972;4.624;2023-03-16T12:00:36;101350.0;;;19.1;34.5
52343;BME280;38277;51.972;4.624;2023-03-16T12:05:35;101330.0;;;18.8;34.5
52343;BME280;38277;51.972;4.624;2023-03-16T12:14:15;101340.0;;;18.0;36.5
52343;BME280;38277;51.972;4.624;2023-03-16T12:17:54;101320.0;;;18.1;35.5
52343;BME280;38277;51.972;4.624;2023-03-16T12:22:35;101320.0;;;18.3;34.5
52343;BME280;38277;51.972;4.624;2023-03-16T12:26:46;101310.0;;;18.8;34.0
52343;BME280;38277;51.972;4.624;2023-03-16T12:31:41;101290.0;;;19.6;34.0
52343;BME280;38277;51.972;4.624;2023-03-16T12:35:59;101290.0;;;20.6;32.0
52343;BME280;38277;51.972;4.624;2023-03-16T12:40:27;101270.0;;;21.9;29.0
52343;BME280;38277;51.972;4.624;2023-03-16T12:45:03;101270.0;;;22.7;28.5
52343;BME280;38277;51.972;4.624;2023-03-16T12:49:12;101250.0;;;23.7;25.5
52343;BME280;38277;51.972;4.624;2023-03-16T12:53:43;101260.0;;;24.6;23.0
52343;BME280;38277;51.972;4.624;2023-03-16T12:58:15;101260.0;;;25.2;22.0
52343;BME280;38277;51.972;4.624;2023-03-16T13:02:41;101250.0;;;25.1;22.0
52343;BME280;38277;51.972;4.624;2023-03-16T13:07:23;101250.0;;;24.5;23.0
52343;BME280;38277;51.972;4.624;2023-03-16T13:11:58;101240.0;;;24.5;22.5
52343;BME280;38277;51.972;4.624;2023-03-16T13:17:26;101230.0;;;24.6;22.5
52343;BME280;38277;51.972;4.624;2023-03-16T13:21:13;101210.0;;;26.0;20.5
52343;BME280;38277;51.972;4.624;2023-03-16T13:25:17;101220.0;;;27.0;19.5
52343;BME280;38277;51.972;4.624;2023-03-16T13:29:33;101220.0;;;26.2;19.5
52343;BME280;38277;51.972;4.624;2023-03-16T13:34:17;101200.0;;;25.5;20.5
52343;BME280;38277;51.972;4.624;2023-03-16T13:40:24;101200.0;;;25.7;20.0
52343;BME280;38277;51.972;4.624;2023-03-16T13:43:30;101180.0;;;26.0;19.5
52343;BME280;38277;51.972;4.624;2023-03-16T13:48:38;101190.0;;;26.0;19.5
52343;BME280;38277;51.972;4.624;2023-03-16T13:53:03;101190.0;;;26.3;19.5
52343;BME280;38277;51.972;4.624;2023-03-16T13:56:51;101180.0;;;26.9;19.5
52343;BME280;38277;51.972;4.624;2023-03-16T14:01:28;101170.0;;;27.7;18.5
52343;BME280;38277;51.972;4.624;2023-03-16T14:05:57;101180.0;;;28.0;18.0
52343;BME280;38277;51.972;4.624;2023-03-16T14:10:32;101150.0;;;28.1;18.0
52343;BME280;38277;51.972;4.624;2023-03-16T14:14:55;101160.0;;;28.7;16.5
52343;BME280;38277;51.972;4.624;2023-03-16T14:19:13;101150.0;;;28.6;16.5
52343;BME280;38277;51.972;4.624;2023-03-16T14:24:01;101150.0;;;28.7;16.0
52343;BME280;38277;51.972;4.624;2023-03-16T14:29:19;101150.0;;;28.1;16.5
52343;BME280;38277;51.972;4.624;2023-03-16T14:32:34;101140.0;;;27.9;17.0
52343;BME280;38277;51.972;4.624;2023-03-16T14:37:33;101130.0;;;28.0;16.5
52343;BME280;38277;51.972;4.624;2023-03-16T14:41:56;101140.0;;;27.7;16.5
52343;BME280;38277;51.972;4.624;2023-03-16T14:46:13;101120.0;;;27.7;17.0
52343;BME280;38277;51.972;4.624;2023-03-16T14:51:02;101100.0;;;27.3;17.0
52343;BME280;38277;51.972;4.624;2023-03-16T14:55:22;101120.0;;;27.6;17.0
52343;BME280;38277;51.972;4.624;2023-03-16T14:59:52;101110.0;;;27.7;16.5
52343;BME280;38277;51.972;4.624;2023-03-16T15:04:04;101090.0;;;27.6;17.0
52343;BME280;38277;51.972;4.624;2023-03-16T15:09:40;101090.0;;;27.1;17.5
52343;BME280;38277;51.972;4.624;2023-03-16T15:13:28;101090.0;;;26.6;18.0
52343;BME280;38277;51.972;4.624;2023-03-16T15:22:16;101080.0;;;25.5;19.0
52343;BME280;38277;51.972;4.624;2023-03-16T15:26:44;101080.0;;;25.6;19.5
52343;BME280;38277;51.972;4.624;2023-03-16T15:31:27;101080.0;;;25.7;19.5
52343;BME280;38277;51.972;4.624;2023-03-16T15:35:34;101080.0;;;25.5;19.0
52343;BME280;38277;51.972;4.624;2023-03-16T15:40:54;101090.0;;;23.7;20.5
52343;BME280;38277;51.972;4.624;2023-03-16T15:45:26;101080.0;;;21.9;22.5
52343;BME280;38277;51.972;4.624;2023-03-16T15:49:05;101080.0;;;20.7;24.0
52343;BME280;38277;51.972;4.624;2023-03-16T15:53:49;101080.0;;;19.9;25.5
52343;BME280;38277;51.972;4.624;2023-03-16T15:58:26;101070.0;;;19.3;26.5
52343;BME280;38277;51.972;4.624;2023-03-16T16:03:32;101060.0;;;19.5;26.5
52343;BME280;38277;51.972;4.624;2023-03-16T16:07:11;101050.0;;;19.5;26.5
52343;BME280;38277;51.972;4.624;2023-03-16T16:11:44;101050.0;;;19.2;26.5
52343;BME280;38277;51.972;4.624;2023-03-16T16:16:03;101060.0;;;19.0;27.0
52343;BME280;38277;51.972;4.624;2023-03-16T16:20:49;101050.0;;;18.8;27.5
52343;BME280;38277;51.972;4.624;2023-03-16T16:25:58;101050.0;;;18.4;29.0
52343;BME280;38277;51.972;4.624;2023-03-16T16:29:58;101060.0;;;17.9;30.0
52343;BME280;38277;51.972;4.624;2023-03-16T16:34:11;101040.0;;;17.6;31.0
52343;BME280;38277;51.972;4.624;2023-03-16T16:39:01;101040.0;;;17.3;31.0
52343;BME280;38277;51.972;4.624;2023-03-16T16:43:30;101040.0;;;17.0;31.5
52343;BME280;38277;51.972;4.624;2023-03-16T16:47:33;101030.0;;;16.7;32.0
52343;BME280;38277;51.972;4.624;2023-03-16T16:52:14;101040.0;;;16.4;32.5
52343;BME280;38277;51.972;4.624;2023-03-16T16:56:36;101040.0;;;16.1;33.0
52343;BME280;38277;51.972;4.624;2023-03-16T17:01:04;101030.0;;;15.8;34.0
52343;BME280;38277;51.972;4.624;2023-03-16T17:05:58;101020.0;;;15.6;34.5
52343;BME280;38277;51.972;4.624;2023-03-16T17:14:52;101030.0;;;15.2;36.5
52343;BME280;38277;51.972;4.624;2023-03-16T17:19:12;101030.0;;;15.0;37.0
52343;BME280;38277;51.972;4.624;2023-03-16T17:23:40;101020.0;;;14.8;37.5
52343;BME280;38277;51.972;4.624;2023-03-16T17:32:51;101040.0;;;14.4;39.0
52343;BME280;38277;51.972;4.624;2023-03-16T17:37:15;101040.0;;;14.2;39.5
52343;BME280;38277;51.972;4.624;2023-03-16T17:41:42;101060.0;;;14.0;40.0
52343;BME280;38277;51.972;4.624;2023-03-16T17:50:33;101060.0;;;13.6;41.0
52343;BME280;38277;51.972;4.624;2023-03-16T17:59:50;101040.0;;;13.3;41.5
52343;BME280;38277;51.972;4.624;2023-03-16T18:04:08;101020.0;;;13.2;42.0
52343;BME280;38277;51.972;4.624;2023-03-16T18:08:37;101030.0;;;13.1;42.0
52343;BME280;38277;51.972;4.624;2023-03-16T18:13:13;101040.0;;;13.0;42.5
52343;BME280;38277;51.972;4.624;2023-03-16T18:17:51;101030.0;;;12.9;43.0
52343;BME280;38277;51.972;4.624;2023-03-16T18:26:43;101040.0;;;12.7;44.0
52343;BME280;38277;51.972;4.624;2023-03-16T18:31:03;101040.0;;;12.6;44.5
52343;BME280;38277;51.972;4.624;2023-03-16T18:35:56;101040.0;;;12.5;44.5
52343;BME280;38277;51.972;4.624;2023-03-16T18:40:30;101060.0;;;12.4;45.0
52343;BME280;38277;51.972;4.624;2023-03-16T18:44:36;101050.0;;;12.3;45.0
52343;BME280;38277;51.972;4.624;2023-03-16T18:49:26;101030.0;;;12.3;45.0
52343;BME280;38277;51.972;4.624;2023-03-16T18:53:58;101020.0;;;12.2;45.0
52343;BME280;38277;51.972;4.624;2023-03-16T19:02:41;101030.0;;;12.1;45.5
52343;BME280;38277;51.972;4.624;2023-03-16T19:07:26;101010.0;;;12.0;46.0
52343;BME280;38277;51.972;4.624;2023-03-16T19:11:36;101000.0;;;11.9;46.0
52343;BME280;38277;51.972;4.624;2023-03-16T19:16:08;101000.0;;;11.8;46.5
52343;BME280;38277;51.972;4.624;2023-03-16T19:20:56;101000.0;;;11.8;46.5
52343;BME280;38277;51.972;4.624;2023-03-16T19:25:23;100990.0;;;11.8;46.5
52343;BME280;38277;51.972;4.624;2023-03-16T19:29:34;101000.0;;;11.7;46.5
52343;BME280;38277;51.972;4.624;2023-03-16T19:39:01;100980.0;;;11.7;46.5
52343;BME280;38277;51.972;4.624;2023-03-16T19:43:29;100980.0;;;11.7;46.5
52343;BME280;38277;51.972;4.624;2023-03-16T19:48:00;100990.0;;;11.6;47.0
52343;BME280;38277;51.972;4.624;2023-03-16T19:52:29;100980.0;;;11.6;47.0
52343;BME280;38277;51.972;4.624;2023-03-16T19:57:09;100990.0;;;11.6;47.0
52343;BME280;38277;51.972;4.624;2023-03-16T20:01:16;100990.0;;;11.5;47.0
52343;BME280;38277;51.972;4.624;2023-03-16T20:05:35;100990.0;;;11.5;47.0
52343;BME280;38277;51.972;4.624;2023-03-16T20:14:40;100960.0;;;11.4;47.5
52343;BME280;38277;51.972;4.624;2023-03-16T20:19:20;100960.0;;;11.3;48.0
52343;BME280;38277;51.972;4.624;2023-03-16T20:23:43;100960.0;;;11.3;48.0
52343;BME280;38277;51.972;4.624;2023-03-16T20:32:55;100960.0;;;11.3;48.5
52343;BME280;38277;51.972;4.624;2023-03-16T20:37:20;100960.0;;;11.2;49.0
52343;BME280;38277;51.972;4.624;2023-03-16T20:41:49;100960.0;;;11.2;49.0
52343;BME280;38277;51.972;4.624;2023-03-16T20:50:52;100960.0;;;11.1;49.5
52343;BME280;38277;51.972;4.624;2023-03-16T20:55:29;100940.0;;;11.1;50.0
52343;BME280;38277;51.972;4.624;2023-03-16T20:59:42;100950.0;;;11.1;50.0
52343;BME280;38277;51.972;4.624;2023-03-16T21:04:32;100940.0;;;11.1;50.5
52343;BME280;38277;51.972;4.624;2023-03-16T21:08:40;100940.0;;;11.1;50.5
52343;BME280;38277;51.972;4.624;2023-03-16T21:13:32;100950.0;;;11.1;50.5
52343;BME280;38277;51.972;4.624;2023-03-16T21:17:46;100940.0;;;11.1;50.5
52343;BME280;38277;51.972;4.624;2023-03-16T21:26:50;100950.0;;;11.1;51.0
52343;BME280;38277;51.972;4.624;2023-03-16T21:31:15;100940.0;;;11.0;51.0
52343;BME280;38277;51.972;4.624;2023-03-16T21:35:53;100920.0;;;11.0;51.0
52343;BME280;38277;51.972;4.624;2023-03-16T21:40:05;100930.0;;;11.0;51.0
52343;BME280;38277;51.972;4.624;2023-03-16T21:44:40;100920.0;;;11.0;51.0
52343;BME280;38277;51.972;4.624;2023-03-16T21:49:08;100930.0;;;11.0;51.0
52343;BME280;38277;51.972;4.624;2023-03-16T21:53:58;100920.0;;;11.0;51.0
52343;BME280;38277;51.972;4.624;2023-03-16T22:02:51;100930.0;;;11.0;51.5
52343;BME280;38277;51.972;4.624;2023-03-16T22:07:12;100930.0;;;11.1;51.5
52343;BME280;38277;51.972;4.624;2023-03-16T22:16:30;100920.0;;;11.1;51.5
52343;BME280;38277;51.972;4.624;2023-03-16T22:20:39;100920.0;;;11.1;51.5
52343;BME280;38277;51.972;4.624;2023-03-16T22:25:15;100920.0;;;11.1;52.0
52343;BME280;38277;51.972;4.624;2023-03-16T22:29:40;100930.0;;;11.1;52.0
52343;BME280;38277;51.972;4.624;2023-03-16T22:38:34;100920.0;;;11.1;52.5
52343;BME280;38277;51.972;4.624;2023-03-16T22:43:31;100910.0;;;11.1;53.0
52343;BME280;38277;51.972;4.624;2023-03-16T22:56:52;100900.0;;;11.1;53.5
52343;BME280;38277;51.972;4.624;2023-03-16T23:01:15;100890.0;;;11.1;53.5
52343;BME280;38277;51.972;4.624;2023-03-16T23:05:34;100890.0;;;11.1;54.0
52343;BME280;38277;51.972;4.624;2023-03-16T23:14:53;100890.0;;;11.0;54.5
52343;BME280;38277;51.972;4.624;2023-03-16T23:19:33;100910.0;;;11.0;55.0
52343;BME280;38277;51.972;4.624;2023-03-16T23:23:49;100910.0;;;10.9;55.0
52343;BME280;38277;51.972;4.624;2023-03-16T23:28:27;100900.0;;;10.9;55.5
52343;BME280;38277;51.972;4.624;2023-03-16T23:32:49;100890.0;;;10.8;55.5
52343;BME280;38277;51.972;4.624;2023-03-16T23:37:22;100890.0;;;10.7;55.5
52343;BME280;38277;51.972;4.624;2023-03-16T23:41:40;100910.0;;;10.7;55.5
52343;BME280;38277;51.972;4.624;2023-03-16T23:46:06;100900.0;;;10.6;56.0
52343;BME280;38277;51.972;4.624;2023-03-16T23:51:00;100900.0;;;10.6;56.5
52343;BME280;38277;51.972;4.624;2023-03-16T23:55:08;100910.0;;;10.5;56.5
52343;BME280;38277;51.972;4.624;2023-03-16T23:59:55;100920.0;;;10.5;57.0
